createdAt,value
2018-08-18T00:00:26.098Z,7.93
2018-08-18T00:03:00.261Z,6.63
2018-08-18T00:05:34.543Z,6.07
2018-08-18T00:08:09.245Z,10.10
2018-08-18T00:10:43.527Z,9.17
2018-08-18T00:13:17.909Z,6.60
2018-08-18T00:15:52.287Z,7.80
2018-08-18T00:18:26.671Z,6.80
2018-08-18T00:21:00.952Z,6.70
2018-08-18T00:23:35.190Z,6.43
2018-08-18T00:26:09.393Z,5.77
2018-08-18T00:28:43.704Z,8.57
2018-08-18T00:31:18.182Z,6.73
2018-08-18T00:33:52.410Z,6.37
2018-08-18T00:36:26.712Z,7.73
2018-08-18T00:39:01.378Z,8.23
2018-08-18T00:41:36.038Z,5.67
2018-08-18T00:44:11.134Z,9.77
2018-08-18T00:46:45.443Z,5.87
2018-08-18T00:49:19.790Z,10.30
2018-08-18T00:51:54.090Z,7.77
2018-08-18T00:54:28.385Z,6.70
2018-08-18T00:57:08.063Z,7.53
2018-08-18T00:59:42.284Z,6.93
2018-08-18T01:02:16.573Z,8.57
2018-08-18T01:04:57.961Z,6.50
2018-08-18T01:07:32.790Z,7.13
2018-08-18T01:10:07.017Z,9.70
2018-08-18T01:12:41.349Z,7.30
2018-08-18T01:15:22.886Z,9.83
2018-08-18T01:17:57.346Z,8.87
2018-08-18T01:20:31.555Z,7.37
2018-08-18T01:23:05.847Z,8.07
2018-08-18T01:25:40.075Z,6.57
2018-08-18T01:28:14.466Z,5.37
2018-08-18T01:31:03.179Z,9.00
2018-08-18T01:33:38.290Z,6.93
2018-08-18T01:36:12.600Z,6.53
2018-08-18T01:38:46.904Z,6.13
2018-08-18T01:41:24.821Z,8.50
2018-08-18T01:44:13.898Z,8.27
2018-08-18T01:46:49.486Z,6.00
2018-08-18T01:49:31.818Z,9.13
2018-08-18T01:52:13.714Z,9.30
2018-08-18T01:54:48.003Z,6.33
2018-08-18T01:57:22.990Z,7.37
2018-08-18T01:59:57.159Z,6.63
2018-08-18T02:02:31.418Z,8.30
2018-08-18T02:05:16.124Z,11.40
2018-08-18T02:07:50.401Z,8.53
2018-08-18T02:10:24.810Z,7.30
2018-08-18T02:13:01.299Z,7.67
2018-08-18T02:15:35.454Z,7.13
2018-08-18T02:18:09.774Z,6.40
2018-08-18T02:20:44.170Z,7.07
2018-08-18T02:23:18.326Z,6.27
2018-08-18T02:25:52.728Z,7.57
2018-08-18T02:28:28.014Z,9.07
2018-08-18T02:31:02.426Z,6.87
2018-08-18T02:33:36.672Z,8.97
2018-08-18T02:36:10.998Z,11.43
2018-08-18T02:38:50.814Z,7.03
2018-08-18T02:41:26.258Z,9.17
2018-08-18T02:44:01.077Z,6.00
2018-08-18T02:46:37.671Z,5.57
2018-08-18T02:49:11.965Z,7.07
2018-08-18T02:51:46.319Z,6.43
2018-08-18T02:54:21.735Z,5.70
2018-08-18T02:56:56.042Z,6.90
2018-08-18T02:59:30.334Z,6.27
2018-08-18T03:02:04.798Z,6.00
2018-08-18T03:04:44.326Z,5.97
2018-08-18T03:07:18.485Z,8.33
2018-08-18T03:09:53.284Z,9.23
2018-08-18T03:12:33.000Z,7.33
2018-08-18T03:15:07.685Z,7.30
2018-08-18T03:17:42.269Z,7.23
2018-08-18T03:20:16.696Z,7.53
2018-08-18T03:22:50.915Z,8.30
2018-08-18T03:25:37.102Z,6.17
2018-08-18T03:28:11.290Z,10.07
2018-08-18T03:30:45.542Z,5.20
2018-08-18T03:33:20.012Z,6.90
2018-08-18T03:35:54.256Z,5.97
2018-08-18T03:38:28.668Z,8.87
2018-08-18T03:41:02.973Z,8.07
2018-08-18T03:43:37.326Z,7.93
2018-08-18T03:46:11.668Z,6.47
2018-08-18T03:48:46.184Z,7.63
2018-08-18T03:51:23.131Z,6.53
2018-08-18T03:53:57.440Z,8.87
2018-08-18T03:56:31.710Z,6.90
2018-08-18T03:59:06.150Z,7.40
2018-08-18T04:01:48.758Z,5.77
2018-08-18T04:04:23.949Z,9.23
2018-08-18T04:06:59.038Z,6.03
2018-08-18T04:09:34.432Z,5.67
2018-08-18T04:12:09.999Z,8.43
2018-08-18T04:14:44.390Z,5.93
2018-08-18T04:17:28.709Z,7.25
2018-08-18T04:20:02.951Z,7.03
2018-08-18T04:22:37.228Z,10.07
2018-08-18T04:25:11.569Z,7.60
2018-08-18T04:27:47.070Z,6.60
2018-08-18T04:30:22.085Z,6.07
2018-08-18T04:32:58.770Z,6.13
2018-08-18T04:35:33.594Z,8.17
2018-08-18T04:38:07.811Z,7.93
2018-08-18T04:40:42.038Z,11.47
2018-08-18T04:43:16.386Z,8.53
2018-08-18T04:45:50.698Z,7.33
2018-08-18T04:48:29.710Z,7.57
2018-08-18T04:51:04.070Z,9.93
2018-08-18T04:53:38.388Z,7.33
2018-08-18T04:56:12.704Z,10.80
2018-08-18T04:58:46.996Z,12.27
2018-08-18T05:01:21.294Z,9.37
2018-08-18T05:04:03.010Z,7.37
2018-08-18T05:06:37.362Z,8.67
2018-08-18T05:09:13.117Z,12.83
2018-08-18T05:11:47.414Z,12.07
2018-08-18T05:14:21.533Z,7.83
2018-08-18T05:16:55.670Z,9.03
2018-08-18T05:19:29.989Z,9.77
2018-08-18T05:22:04.274Z,10.43
2018-08-18T05:24:38.514Z,10.60
2018-08-18T05:27:18.241Z,10.97
2018-08-18T05:29:52.418Z,11.67
2018-08-18T05:32:26.597Z,10.03
2018-08-18T05:35:00.870Z,11.90
2018-08-18T05:37:35.159Z,11.17
2018-08-18T05:40:09.478Z,11.97
2018-08-18T05:42:43.794Z,14.40
2018-08-18T05:45:25.006Z,13.97
2018-08-18T05:47:59.316Z,12.63
2018-08-18T05:50:33.686Z,12.80
2018-08-18T05:53:17.878Z,14.30
2018-08-18T05:55:52.273Z,11.40
2018-08-18T05:58:26.709Z,13.63
2018-08-18T06:01:07.344Z,13.97
2018-08-18T06:03:41.582Z,12.83
2018-08-18T06:06:15.891Z,12.90
2018-08-18T06:08:50.274Z,16.17
2018-08-18T06:11:24.697Z,14.07
2018-08-18T06:13:58.965Z,14.13
2018-08-18T06:16:33.403Z,13.00
2018-08-18T06:19:07.542Z,11.70
2018-08-18T06:21:41.774Z,14.53
2018-08-18T06:24:16.050Z,11.60
2018-08-18T06:26:50.389Z,14.20
2018-08-18T06:29:24.745Z,13.97
2018-08-18T06:32:01.153Z,15.80
2018-08-18T06:34:35.627Z,12.97
2018-08-18T06:37:09.745Z,12.63
2018-08-18T06:39:53.182Z,14.97
2018-08-18T06:42:43.173Z,16.83
2018-08-18T06:45:18.905Z,11.67
2018-08-18T06:47:57.546Z,12.93
2018-08-18T06:50:37.119Z,13.60
2018-08-18T06:53:11.349Z,14.23
2018-08-18T06:55:45.650Z,13.37
2018-08-18T06:58:19.946Z,15.57
2018-08-18T07:00:54.247Z,13.83
2018-08-18T07:03:38.210Z,13.60
2018-08-18T07:06:13.106Z,15.33
2018-08-18T07:08:54.317Z,13.53
2018-08-18T07:11:28.629Z,12.53
2018-08-18T07:14:02.898Z,9.00
2018-08-18T07:16:37.093Z,10.53
2018-08-18T07:19:11.458Z,8.57
2018-08-18T07:21:45.782Z,12.27
2018-08-18T07:24:20.082Z,11.60
2018-08-18T07:26:54.381Z,10.70
2018-08-18T07:29:34.455Z,11.50
2018-08-18T07:32:08.769Z,12.27
2018-08-18T07:34:43.074Z,11.13
2018-08-18T07:37:17.395Z,10.53
2018-08-18T07:39:51.639Z,11.70
2018-08-18T07:42:26.077Z,13.37
2018-08-18T07:45:00.462Z,13.03
2018-08-18T07:47:35.635Z,9.37
2018-08-18T07:50:09.946Z,12.07
2018-08-18T07:52:44.367Z,14.10
2018-08-18T07:55:18.654Z,16.07
2018-08-18T07:57:57.805Z,14.43
2018-08-18T08:00:33.241Z,13.50
2018-08-18T08:03:08.826Z,12.50
2018-08-18T08:05:43.539Z,13.90
2018-08-18T08:08:17.929Z,12.67
2018-08-18T08:10:53.985Z,13.47
2018-08-18T08:13:28.310Z,9.67
2018-08-18T08:16:02.478Z,11.30
2018-08-18T08:18:36.770Z,13.00
2018-08-18T08:21:11.170Z,10.07
2018-08-18T08:23:45.489Z,7.53
2018-08-18T08:26:19.777Z,6.87
2018-08-18T08:28:54.123Z,9.67
2018-08-18T08:31:28.543Z,9.97
2018-08-18T08:34:02.866Z,10.07
2018-08-18T08:36:37.042Z,8.43
2018-08-18T08:39:11.314Z,6.40
2018-08-18T08:41:45.605Z,9.07
2018-08-18T08:44:20.018Z,9.03
2018-08-18T08:47:12.549Z,10.80
2018-08-18T08:49:46.766Z,8.40
2018-08-18T08:52:21.106Z,9.60
2018-08-18T08:54:55.393Z,5.70
2018-08-18T08:57:29.686Z,5.73
2018-08-18T09:00:04.420Z,6.60
2018-08-18T09:02:38.566Z,8.87
2018-08-18T09:05:12.871Z,5.70
2018-08-18T09:07:47.258Z,8.97
2018-08-18T09:10:21.672Z,4.77
2018-08-18T09:12:55.958Z,6.40
2018-08-18T09:15:30.196Z,5.00
2018-08-18T09:18:04.582Z,5.20
2018-08-18T09:20:45.152Z,5.93
2018-08-18T09:23:19.469Z,4.33
2018-08-18T09:25:53.850Z,6.77
2018-08-18T09:28:28.378Z,4.40
2018-08-18T09:31:02.566Z,4.30
2018-08-18T09:33:36.828Z,3.77
2018-08-18T09:36:11.148Z,3.50
2018-08-18T09:38:45.553Z,5.67
2018-08-18T09:41:19.862Z,6.40
2018-08-18T09:43:54.242Z,4.33
2018-08-18T09:46:28.544Z,3.33
2018-08-18T09:49:02.847Z,5.40
2018-08-18T09:51:37.222Z,5.10
2018-08-18T09:54:11.566Z,2.43
2018-08-18T09:56:45.861Z,3.63
2018-08-18T09:59:20.100Z,3.53
2018-08-18T10:01:54.668Z,3.17
2018-08-18T10:04:28.933Z,5.40
2018-08-18T10:07:03.348Z,7.47
2018-08-18T10:09:40.281Z,8.10
2018-08-18T10:12:14.570Z,4.00
2018-08-18T10:14:49.033Z,4.53
2018-08-18T10:17:23.447Z,5.03
2018-08-18T10:19:58.302Z,3.67
2018-08-18T10:22:32.462Z,4.83
2018-08-18T10:25:06.754Z,10.27
2018-08-18T10:27:41.063Z,3.70
2018-08-18T10:30:15.404Z,2.70
2018-08-18T10:32:54.362Z,3.80
2018-08-18T10:35:31.325Z,4.00
2018-08-18T10:38:06.374Z,3.70
2018-08-18T10:40:40.528Z,2.20
2018-08-18T10:43:14.998Z,2.77
2018-08-18T10:45:49.334Z,6.27
2018-08-18T10:48:23.769Z,5.70
2018-08-18T10:51:38.607Z,6.00
2018-08-18T10:54:12.810Z,4.90
2018-08-18T10:56:47.031Z,4.57
2018-08-18T10:59:31.420Z,4.03
2018-08-18T11:02:07.101Z,4.07
2018-08-18T11:04:41.334Z,3.37
2018-08-18T11:07:15.889Z,4.37
2018-08-18T11:09:50.334Z,4.13
2018-08-18T11:12:24.535Z,5.00
2018-08-18T11:15:00.082Z,5.80
2018-08-18T11:17:34.434Z,2.23
2018-08-18T11:20:13.990Z,3.40
2018-08-18T11:22:50.713Z,6.30
2018-08-18T11:25:27.259Z,2.37
2018-08-18T11:28:01.777Z,1.80
2018-08-18T11:30:35.953Z,3.97
2018-08-18T11:33:10.257Z,7.80
2018-08-18T11:35:44.558Z,4.07
2018-08-18T11:38:18.981Z,4.23
2018-08-18T11:40:53.290Z,3.77
2018-08-18T11:43:27.851Z,5.37
2018-08-18T11:46:02.014Z,5.30
2018-08-18T11:48:36.442Z,3.47
2018-08-18T11:51:10.598Z,4.27
2018-08-18T11:53:56.858Z,3.60
2018-08-18T11:56:37.606Z,3.83
2018-08-18T11:59:14.933Z,5.60
2018-08-18T12:01:51.204Z,2.67
2018-08-18T12:04:25.398Z,7.57
2018-08-18T12:06:59.798Z,4.30
2018-08-18T12:09:34.016Z,7.83
2018-08-18T12:12:08.221Z,5.17
2018-08-18T12:14:42.433Z,3.43
2018-08-18T12:17:16.705Z,4.13
2018-08-18T12:19:54.265Z,7.93
2018-08-18T12:22:28.438Z,5.57
2018-08-18T12:25:02.829Z,5.53
2018-08-18T12:27:37.118Z,4.00
2018-08-18T12:30:23.210Z,3.17
2018-08-18T12:32:57.642Z,3.03
2018-08-18T12:35:32.870Z,4.50
2018-08-18T12:38:07.066Z,5.10
2018-08-18T12:40:41.421Z,2.90
2018-08-18T12:43:17.350Z,4.70
2018-08-18T12:45:55.570Z,3.23
2018-08-18T12:48:29.898Z,6.27
2018-08-18T12:51:05.070Z,3.90
2018-08-18T12:53:44.533Z,4.07
2018-08-18T12:56:20.543Z,4.13
2018-08-18T12:58:54.731Z,3.40
2018-08-18T13:01:42.574Z,4.60
2018-08-18T13:04:18.837Z,3.47
2018-08-18T13:06:53.467Z,6.63
2018-08-18T13:09:28.186Z,4.53
2018-08-18T13:12:02.476Z,5.87
2018-08-18T13:14:36.762Z,5.07
2018-08-18T13:17:11.003Z,6.00
2018-08-18T13:19:45.305Z,3.33
2018-08-18T13:22:19.617Z,3.57
2018-08-18T13:24:53.902Z,3.97
2018-08-18T13:27:28.307Z,5.87
2018-08-18T13:30:02.618Z,2.67
2018-08-18T13:32:37.086Z,4.20
2018-08-18T13:35:11.414Z,2.50
2018-08-18T13:37:45.685Z,3.87
2018-08-18T13:40:23.440Z,3.33
2018-08-18T13:42:57.758Z,4.43
2018-08-18T13:45:46.930Z,3.10
2018-08-18T13:48:21.135Z,4.07
2018-08-18T13:50:55.450Z,3.50
2018-08-18T13:53:32.655Z,5.63
2018-08-18T13:56:08.231Z,5.17
2018-08-18T13:58:42.543Z,4.93
2018-08-18T14:01:28.895Z,4.47
2018-08-18T14:04:03.361Z,2.63
2018-08-18T14:06:43.209Z,4.27
2018-08-18T14:09:17.394Z,4.47
2018-08-18T14:11:56.915Z,7.37
2018-08-18T14:14:31.078Z,2.67
2018-08-18T14:17:05.394Z,6.70
2018-08-18T14:19:39.815Z,8.10
2018-08-18T14:22:17.377Z,3.90
2018-08-18T14:24:51.701Z,5.30
2018-08-18T14:27:26.149Z,5.33
2018-08-18T14:30:00.477Z,5.37
2018-08-18T14:32:34.832Z,5.30
2018-08-18T14:35:09.042Z,4.83
2018-08-18T14:37:43.512Z,2.87
2018-08-18T14:40:18.657Z,3.53
2018-08-18T14:42:53.034Z,6.37
2018-08-18T14:45:27.360Z,5.50
2018-08-18T14:48:01.648Z,6.67
2018-08-18T14:50:35.788Z,3.50
2018-08-18T14:53:15.602Z,2.73
2018-08-18T14:55:49.755Z,5.70
2018-08-18T14:58:29.714Z,5.40
2018-08-18T15:01:10.923Z,4.63
2018-08-18T15:03:45.100Z,5.57
2018-08-18T15:06:19.495Z,3.77
2018-08-18T15:08:53.896Z,4.77
2018-08-18T15:11:28.279Z,7.30
2018-08-18T15:14:02.510Z,6.73
2018-08-18T15:16:36.722Z,4.07
2018-08-18T15:19:11.174Z,6.03
2018-08-18T15:21:45.446Z,4.00
2018-08-18T15:24:19.785Z,6.83
2018-08-18T15:26:54.019Z,6.00
2018-08-18T15:29:28.361Z,6.63
2018-08-18T15:32:02.496Z,8.30
2018-08-18T15:34:36.822Z,5.83
2018-08-18T15:37:11.222Z,3.93
2018-08-18T15:39:45.514Z,6.10
2018-08-18T15:42:19.783Z,5.47
2018-08-18T15:45:00.034Z,5.47
2018-08-18T15:47:34.967Z,5.30
2018-08-18T15:50:09.202Z,5.10
2018-08-18T15:52:43.503Z,5.67
2018-08-18T15:55:17.943Z,4.67
2018-08-18T15:57:52.082Z,4.93
2018-08-18T16:00:33.716Z,2.67
2018-08-18T16:03:08.126Z,3.23
2018-08-18T16:05:42.410Z,4.20
2018-08-18T16:08:16.679Z,3.97
2018-08-18T16:10:51.022Z,6.07
2018-08-18T16:13:25.417Z,2.70
2018-08-18T16:15:59.649Z,4.37
2018-08-18T16:18:33.929Z,3.57
2018-08-18T16:21:19.138Z,3.80
2018-08-18T16:23:53.558Z,4.63
2018-08-18T16:26:27.826Z,5.23
2018-08-18T16:29:02.106Z,3.20
2018-08-18T16:31:36.423Z,3.13
2018-08-18T16:34:10.676Z,6.90
2018-08-18T16:36:46.810Z,6.03
2018-08-18T16:39:21.151Z,4.30
2018-08-18T16:41:55.478Z,3.70
2018-08-18T16:44:29.739Z,4.70
2018-08-18T16:47:04.642Z,4.73
2018-08-18T16:49:38.885Z,5.07
2018-08-18T16:52:13.111Z,5.17
2018-08-18T16:54:47.425Z,5.90
2018-08-18T16:57:21.701Z,2.13
2018-08-18T16:59:55.974Z,4.93
2018-08-18T17:02:35.130Z,3.73
2018-08-18T17:05:09.830Z,7.13
2018-08-18T17:07:44.233Z,6.53
2018-08-18T17:10:18.601Z,6.77
2018-08-18T17:12:52.900Z,4.37
2018-08-18T17:15:27.222Z,3.67
2018-08-18T17:18:01.532Z,3.70
2018-08-18T17:20:35.909Z,6.53
2018-08-18T17:23:10.210Z,5.23
2018-08-18T17:25:44.378Z,7.00
2018-08-18T17:28:18.738Z,3.43
2018-08-18T17:30:53.354Z,5.60
2018-08-18T17:33:28.242Z,4.30
2018-08-18T17:36:02.490Z,4.87
2018-08-18T17:38:36.808Z,2.90
2018-08-18T17:41:11.170Z,10.07
2018-08-18T17:43:45.486Z,1.93
2018-08-18T17:46:19.849Z,2.40
2018-08-18T17:48:54.168Z,7.80
2018-08-18T17:51:28.477Z,5.73
2018-08-18T17:54:02.862Z,5.50
2018-08-18T17:56:37.139Z,4.90
2018-08-18T17:59:11.418Z,5.87
2018-08-18T18:01:57.173Z,5.37
2018-08-18T18:04:31.366Z,3.13
2018-08-18T18:07:06.050Z,5.07
2018-08-18T18:09:40.452Z,3.57
2018-08-18T18:12:21.031Z,7.57
2018-08-18T18:14:55.741Z,4.13
2018-08-18T18:17:29.934Z,7.07
2018-08-18T18:20:04.348Z,3.40
2018-08-18T18:22:45.713Z,3.10
2018-08-18T18:25:21.211Z,4.60
2018-08-18T18:27:55.586Z,3.07
2018-08-18T18:30:29.949Z,4.80
2018-08-18T18:33:04.298Z,6.00
2018-08-18T18:35:38.473Z,3.27
2018-08-18T18:38:12.803Z,4.80
2018-08-18T18:40:47.083Z,3.53
2018-08-18T18:43:21.387Z,4.97
2018-08-18T18:45:55.751Z,4.53
2018-08-18T18:48:29.971Z,4.90
2018-08-18T18:51:04.427Z,5.50
2018-08-18T18:53:46.105Z,8.27
2018-08-18T18:56:20.617Z,2.70
2018-08-18T18:58:54.924Z,3.87
2018-08-18T19:01:29.287Z,3.20
2018-08-18T19:04:03.418Z,9.47
2018-08-18T19:06:52.497Z,2.47
2018-08-18T19:09:26.792Z,6.20
2018-08-18T19:12:01.022Z,4.83
2018-08-18T19:14:35.295Z,4.03
2018-08-18T19:17:09.617Z,2.83
2018-08-18T19:19:43.985Z,4.77
2018-08-18T19:22:18.297Z,4.70
2018-08-18T19:24:52.634Z,4.47
2018-08-18T19:27:26.926Z,4.97
2018-08-18T19:30:01.223Z,6.03
2018-08-18T19:32:35.603Z,3.17
2018-08-18T19:35:10.223Z,2.97
2018-08-18T19:37:50.138Z,4.27
2018-08-18T19:40:24.354Z,4.07
2018-08-18T19:42:58.639Z,5.37
2018-08-18T19:45:32.842Z,7.13
2018-08-18T19:48:07.410Z,6.10
2018-08-18T19:50:52.544Z,8.67
2018-08-18T19:53:30.671Z,6.07
2018-08-18T19:56:08.216Z,7.97
2018-08-18T19:58:42.361Z,8.10
2018-08-18T20:01:16.766Z,4.57
2018-08-18T20:03:51.669Z,2.90
2018-08-18T20:06:25.893Z,4.70
2018-08-18T20:09:00.306Z,6.13
2018-08-18T20:11:34.769Z,5.10
2018-08-18T20:14:09.022Z,8.43
2018-08-18T20:16:43.291Z,6.97
2018-08-18T20:19:17.587Z,9.43
2018-08-18T20:21:52.102Z,10.10
2018-08-18T20:24:26.367Z,4.70
2018-08-18T20:27:00.543Z,3.63
2018-08-18T20:29:34.867Z,5.70
2018-08-18T20:32:09.042Z,3.67
2018-08-18T20:34:43.395Z,8.53
2018-08-18T20:37:17.613Z,4.30
2018-08-18T20:39:51.979Z,5.53
2018-08-18T20:42:31.944Z,4.17
2018-08-18T20:45:06.162Z,5.10
2018-08-18T20:47:41.934Z,6.93
2018-08-18T20:50:16.089Z,5.57
2018-08-18T20:52:52.278Z,4.83
2018-08-18T20:55:26.607Z,5.33
2018-08-18T20:58:01.009Z,7.27
2018-08-18T21:00:35.925Z,3.50
2018-08-18T21:03:10.794Z,5.23
2018-08-18T21:05:45.178Z,4.13
2018-08-18T21:08:20.061Z,8.17
2018-08-18T21:10:54.275Z,9.57
2018-08-18T21:13:28.549Z,4.40
2018-08-18T21:16:02.766Z,5.37
2018-08-18T21:18:37.034Z,4.27
2018-08-18T21:21:24.986Z,4.57
2018-08-18T21:23:59.257Z,5.83
2018-08-18T21:26:33.721Z,4.50
2018-08-18T21:29:08.011Z,6.63
2018-08-18T21:31:42.340Z,6.23
2018-08-18T21:34:16.724Z,6.57
2018-08-18T21:36:50.938Z,6.70
2018-08-18T21:39:25.222Z,5.37
2018-08-18T21:41:59.526Z,6.63
2018-08-18T21:44:33.826Z,7.20
2018-08-18T21:47:08.170Z,5.20
2018-08-18T21:49:43.603Z,5.53
2018-08-18T21:52:17.957Z,4.50
2018-08-18T21:54:52.327Z,4.57
2018-08-18T21:57:26.730Z,3.43
2018-08-18T22:00:00.902Z,3.47
2018-08-18T22:02:41.406Z,3.93
2018-08-18T22:05:15.619Z,8.83
2018-08-18T22:07:51.910Z,6.70
2018-08-18T22:10:26.103Z,7.43
2018-08-18T22:13:00.384Z,5.03
2018-08-18T22:15:34.605Z,6.40
2018-08-18T22:18:08.933Z,3.90
2018-08-18T22:20:43.362Z,10.20
2018-08-18T22:23:17.605Z,6.20
2018-08-18T22:25:51.941Z,5.00
2018-08-18T22:28:26.197Z,7.60
2018-08-18T22:31:00.422Z,8.33
2018-08-18T22:33:38.860Z,13.07
2018-08-18T22:36:13.270Z,4.83
2018-08-18T22:38:47.648Z,8.70
2018-08-18T22:41:22.184Z,5.80
2018-08-18T22:43:57.284Z,4.77
2018-08-18T22:46:31.602Z,6.13
2018-08-18T22:49:06.066Z,4.77
2018-08-18T22:51:40.392Z,6.90
2018-08-18T22:54:14.650Z,9.80
2018-08-18T22:56:54.509Z,7.57
2018-08-18T22:59:28.982Z,8.07
2018-08-18T23:02:03.317Z,5.23
2018-08-18T23:04:38.688Z,4.83
2018-08-18T23:07:12.963Z,7.60
2018-08-18T23:09:47.262Z,5.43
2018-08-18T23:12:21.493Z,4.77
2018-08-18T23:14:55.710Z,6.77
2018-08-18T23:17:29.949Z,6.73
2018-08-18T23:20:04.538Z,8.20
2018-08-18T23:22:52.749Z,6.27
2018-08-18T23:25:28.481Z,9.47
2018-08-18T23:28:02.631Z,9.40
2018-08-18T23:30:37.626Z,11.27
2018-08-18T23:33:11.809Z,6.30
2018-08-18T23:35:46.081Z,7.10
2018-08-18T23:38:20.426Z,7.07
2018-08-18T23:40:59.088Z,7.87
2018-08-18T23:43:33.235Z,8.07
2018-08-18T23:46:07.445Z,6.23
2018-08-18T23:48:41.757Z,9.10
2018-08-18T23:51:16.155Z,10.93
2018-08-18T23:53:50.415Z,8.13
2018-08-18T23:56:28.514Z,7.03
2018-08-18T23:59:02.878Z,8.53
